sensor_id;sensor_type;location;lat;lon;timestamp;P1;durP1;ratioP1;P2;durP2;ratioP2
9094;SDS011;4583;49.796;9.902;2023-05-07T00:06:11;10.03;;;3.63;;
9094;SDS011;4583;49.796;9.902;2023-05-07T00:16:13;6.87;;;3.83;;
9094;SDS011;4583;49.796;9.902;2023-05-07T00:26:15;4.70;;;3.50;;
9094;SDS011;4583;49.796;9.902;2023-05-07T00:36:18;6.07;;;3.10;;
9094;SDS011;4583;49.796;9.902;2023-05-07T00:46:20;3.90;;;3.47;;
9094;SDS011;4583;49.796;9.902;2023-05-07T00:56:22;5.23;;;3.17;;
9094;SDS011;4583;49.796;9.902;2023-05-07T01:06:25;5.30;;;3.57;;
9094;SDS011;4583;49.796;9.902;2023-05-07T01:16:29;3.60;;;3.17;;
9094;SDS011;4583;49.796;9.902;2023-05-07T01:26:31;6.10;;;3.23;;
9094;SDS011;4583;49.796;9.902;2023-05-07T01:36:32;4.43;;;3.23;;
9094;SDS011;4583;49.796;9.902;2023-05-07T01:46:35;4.63;;;3.10;;
9094;SDS011;4583;49.796;9.902;2023-05-07T01:56:37;6.60;;;3.40;;
9094;SDS011;4583;49.796;9.902;2023-05-07T02:06:39;3.50;;;2.50;;
9094;SDS011;4583;49.796;9.902;2023-05-07T02:16:41;5.93;;;2.90;;
9094;SDS011;4583;49.796;9.902;2023-05-07T02:26:43;3.63;;;2.57;;
9094;SDS011;4583;49.796;9.902;2023-05-07T02:36:44;3.70;;;2.67;;
9094;SDS011;4583;49.796;9.902;2023-05-07T02:46:47;4.03;;;2.77;;
9094;SDS011;4583;49.796;9.902;2023-05-07T02:56:48;5.63;;;3.17;;
9094;SDS011;4583;49.796;9.902;2023-05-07T03:06:50;5.07;;;3.07;;
9094;SDS011;4583;49.796;9.902;2023-05-07T03:16:52;6.33;;;3.03;;
9094;SDS011;4583;49.796;9.902;2023-05-07T03:26:54;6.30;;;3.20;;
9094;SDS011;4583;49.796;9.902;2023-05-07T03:36:55;4.77;;;2.93;;
9094;SDS011;4583;49.796;9.902;2023-05-07T03:46:57;4.20;;;3.20;;
9094;SDS011;4583;49.796;9.902;2023-05-07T03:56:59;4.43;;;3.30;;
9094;SDS011;4583;49.796;9.902;2023-05-07T04:07:01;3.60;;;3.00;;
9094;SDS011;4583;49.796;9.902;2023-05-07T04:17:02;4.40;;;3.50;;
9094;SDS011;4583;49.796;9.902;2023-05-07T04:27:04;5.27;;;3.60;;
9094;SDS011;4583;49.796;9.902;2023-05-07T04:37:07;6.50;;;4.10;;
9094;SDS011;4583;49.796;9.902;2023-05-07T04:47:09;6.63;;;4.70;;
9094;SDS011;4583;49.796;9.902;2023-05-07T04:57:11;7.60;;;6.80;;
9094;SDS011;4583;49.796;9.902;2023-05-07T05:07:13;7.80;;;7.00;;
9094;SDS011;4583;49.796;9.902;2023-05-07T05:17:14;8.00;;;6.87;;
9094;SDS011;4583;49.796;9.902;2023-05-07T05:27:16;7.40;;;6.70;;
9094;SDS011;4583;49.796;9.902;2023-05-07T05:37:18;11.00;;;6.77;;
9094;SDS011;4583;49.796;9.902;2023-05-07T05:47:19;8.07;;;7.27;;
9094;SDS011;4583;49.796;9.902;2023-05-07T05:57:21;7.90;;;6.73;;
9094;SDS011;4583;49.796;9.902;2023-05-07T06:07:23;8.50;;;7.60;;
9094;SDS011;4583;49.796;9.902;2023-05-07T06:17:25;8.10;;;7.23;;
9094;SDS011;4583;49.796;9.902;2023-05-07T06:27:27;10.63;;;6.80;;
9094;SDS011;4583;49.796;9.902;2023-05-07T06:37:29;11.70;;;7.80;;
9094;SDS011;4583;49.796;9.902;2023-05-07T06:47:30;9.00;;;7.60;;
9094;SDS011;4583;49.796;9.902;2023-05-07T06:57:32;10.30;;;7.60;;
9094;SDS011;4583;49.796;9.902;2023-05-07T07:07:34;7.90;;;7.10;;
9094;SDS011;4583;49.796;9.902;2023-05-07T07:17:36;7.90;;;7.10;;
9094;SDS011;4583;49.796;9.902;2023-05-07T07:27:38;8.30;;;7.50;;
9094;SDS011;4583;49.796;9.902;2023-05-07T07:37:41;8.97;;;7.17;;
9094;SDS011;4583;49.796;9.902;2023-05-07T07:47:42;8.47;;;7.13;;
9094;SDS011;4583;49.796;9.902;2023-05-07T07:57:44;10.13;;;7.00;;
9094;SDS011;4583;49.796;9.902;2023-05-07T08:07:46;7.50;;;6.70;;
9094;SDS011;4583;49.796;9.902;2023-05-07T08:17:53;7.77;;;6.40;;
9094;SDS011;4583;49.796;9.902;2023-05-07T08:27:54;7.47;;;6.63;;
9094;SDS011;4583;49.796;9.902;2023-05-07T08:37:56;9.37;;;6.90;;
9094;SDS011;4583;49.796;9.902;2023-05-07T08:47:58;8.83;;;6.93;;
9094;SDS011;4583;49.796;9.902;2023-05-07T08:58:03;7.53;;;6.40;;
9094;SDS011;4583;49.796;9.902;2023-05-07T09:08:05;9.90;;;6.93;;
9094;SDS011;4583;49.796;9.902;2023-05-07T09:18:08;10.47;;;6.17;;
9094;SDS011;4583;49.796;9.902;2023-05-07T09:28:10;8.30;;;6.57;;
9094;SDS011;4583;49.796;9.902;2023-05-07T09:38:12;6.97;;;6.27;;
9094;SDS011;4583;49.796;9.902;2023-05-07T09:48:14;7.80;;;6.30;;
9094;SDS011;4583;49.796;9.902;2023-05-07T09:58:19;9.27;;;6.57;;
9094;SDS011;4583;49.796;9.902;2023-05-07T10:08:24;8.93;;;6.03;;
9094;SDS011;4583;49.796;9.902;2023-05-07T10:18:26;6.97;;;5.70;;
9094;SDS011;4583;49.796;9.902;2023-05-07T10:28:33;6.93;;;6.00;;
9094;SDS011;4583;49.796;9.902;2023-05-07T10:38:39;6.17;;;5.50;;
9094;SDS011;4583;49.796;9.902;2023-05-07T11:09:22;6.13;;;4.90;;
9094;SDS011;4583;49.796;9.902;2023-05-07T11:29:54;4.90;;;4.40;;
9094;SDS011;4583;49.796;9.902;2023-05-07T11:40:08;5.50;;;4.50;;
9094;SDS011;4583;49.796;9.902;2023-05-07T11:50:12;5.90;;;5.30;;
9094;SDS011;4583;49.796;9.902;2023-05-07T12:00:15;5.33;;;4.40;;
9094;SDS011;4583;49.796;9.902;2023-05-07T12:10:17;6.67;;;3.97;;
9094;SDS011;4583;49.796;9.902;2023-05-07T12:20:20;6.77;;;4.13;;
9094;SDS011;4583;49.796;9.902;2023-05-07T12:30:22;6.27;;;4.93;;
9094;SDS011;4583;49.796;9.902;2023-05-07T12:40:24;4.60;;;3.47;;
9094;SDS011;4583;49.796;9.902;2023-05-07T12:50:30;6.40;;;3.83;;
9094;SDS011;4583;49.796;9.902;2023-05-07T13:00:33;8.30;;;3.07;;
9094;SDS011;4583;49.796;9.902;2023-05-07T13:10:36;3.77;;;3.00;;
9094;SDS011;4583;49.796;9.902;2023-05-07T13:20:38;3.00;;;2.70;;
9094;SDS011;4583;49.796;9.902;2023-05-07T13:30:39;2.60;;;2.40;;
9094;SDS011;4583;49.796;9.902;2023-05-07T13:40:41;3.20;;;2.60;;
9094;SDS011;4583;49.796;9.902;2023-05-07T13:50:43;4.17;;;2.37;;
9094;SDS011;4583;49.796;9.902;2023-05-07T14:00:45;4.97;;;2.40;;
9094;SDS011;4583;49.796;9.902;2023-05-07T14:10:47;4.07;;;2.20;;
9094;SDS011;4583;49.796;9.902;2023-05-07T14:20:48;2.90;;;2.08;;
9094;SDS011;4583;49.796;9.902;2023-05-07T14:30:50;3.40;;;2.30;;
9094;SDS011;4583;49.796;9.902;2023-05-07T14:40:52;3.75;;;2.38;;
9094;SDS011;4583;49.796;9.902;2023-05-07T14:50:56;3.90;;;2.60;;
9094;SDS011;4583;49.796;9.902;2023-05-07T15:00:58;3.42;;;2.80;;
9094;SDS011;4583;49.796;9.902;2023-05-07T15:11:00;4.03;;;3.63;;
9094;SDS011;4583;49.796;9.902;2023-05-07T15:21:02;4.23;;;3.23;;
9094;SDS011;4583;49.796;9.902;2023-05-07T15:31:04;9.80;;;3.10;;
9094;SDS011;4583;49.796;9.902;2023-05-07T15:41:06;3.33;;;3.03;;
9094;SDS011;4583;49.796;9.902;2023-05-07T15:51:08;3.53;;;3.23;;
9094;SDS011;4583;49.796;9.902;2023-05-07T16:01:10;6.03;;;3.30;;
9094;SDS011;4583;49.796;9.902;2023-05-07T16:11:12;5.27;;;3.30;;
9094;SDS011;4583;49.796;9.902;2023-05-07T16:21:14;3.60;;;3.27;;
9094;SDS011;4583;49.796;9.902;2023-05-07T16:31:16;4.10;;;3.50;;
9094;SDS011;4583;49.796;9.902;2023-05-07T16:41:19;5.87;;;3.60;;
9094;SDS011;4583;49.796;9.902;2023-05-07T16:51:22;6.50;;;3.50;;
9094;SDS011;4583;49.796;9.902;2023-05-07T17:01:24;4.60;;;3.73;;
9094;SDS011;4583;49.796;9.902;2023-05-07T17:11:26;3.90;;;3.50;;
9094;SDS011;4583;49.796;9.902;2023-05-07T17:21:31;4.30;;;3.90;;
9094;SDS011;4583;49.796;9.902;2023-05-07T17:31:33;3.73;;;3.37;;
9094;SDS011;4583;49.796;9.902;2023-05-07T17:41:35;4.03;;;3.63;;
9094;SDS011;4583;49.796;9.902;2023-05-07T17:51:37;4.10;;;3.70;;
9094;SDS011;4583;49.796;9.902;2023-05-07T18:01:53;4.67;;;3.83;;
9094;SDS011;4583;49.796;9.902;2023-05-07T18:11:55;4.53;;;2.87;;
9094;SDS011;4583;49.796;9.902;2023-05-07T18:21:57;4.97;;;3.17;;
9094;SDS011;4583;49.796;9.902;2023-05-07T18:31:59;5.17;;;2.73;;
9094;SDS011;4583;49.796;9.902;2023-05-07T18:42:01;5.13;;;2.70;;
9094;SDS011;4583;49.796;9.902;2023-05-07T18:52:05;7.67;;;3.77;;
9094;SDS011;4583;49.796;9.902;2023-05-07T19:02:07;7.33;;;3.90;;
9094;SDS011;4583;49.796;9.902;2023-05-07T19:12:08;4.77;;;4.37;;
9094;SDS011;4583;49.796;9.902;2023-05-07T19:22:10;6.17;;;4.33;;
9094;SDS011;4583;49.796;9.902;2023-05-07T19:32:12;5.97;;;5.13;;
9094;SDS011;4583;49.796;9.902;2023-05-07T19:42:13;5.33;;;4.30;;
9094;SDS011;4583;49.796;9.902;2023-05-07T19:52:15;11.30;;;4.30;;
9094;SDS011;4583;49.796;9.902;2023-05-07T20:02:17;4.80;;;4.17;;
9094;SDS011;4583;49.796;9.902;2023-05-07T20:12:19;4.70;;;3.97;;
9094;SDS011;4583;49.796;9.902;2023-05-07T20:22:21;5.30;;;4.43;;
9094;SDS011;4583;49.796;9.902;2023-05-07T20:32:23;4.83;;;4.07;;
9094;SDS011;4583;49.796;9.902;2023-05-07T20:42:26;4.20;;;3.70;;
9094;SDS011;4583;49.796;9.902;2023-05-07T20:52:28;4.33;;;3.93;;
9094;SDS011;4583;49.796;9.902;2023-05-07T21:02:30;4.17;;;3.77;;
9094;SDS011;4583;49.796;9.902;2023-05-07T21:12:31;5.13;;;3.70;;
9094;SDS011;4583;49.796;9.902;2023-05-07T21:22:33;5.10;;;3.80;;
9094;SDS011;4583;49.796;9.902;2023-05-07T21:32:35;4.30;;;3.90;;
9094;SDS011;4583;49.796;9.902;2023-05-07T21:42:36;4.20;;;3.80;;
9094;SDS011;4583;49.796;9.902;2023-05-07T21:52:38;4.20;;;3.77;;
9094;SDS011;4583;49.796;9.902;2023-05-07T22:02:40;4.23;;;3.83;;
9094;SDS011;4583;49.796;9.902;2023-05-07T22:12:42;5.00;;;4.50;;
9094;SDS011;4583;49.796;9.902;2023-05-07T22:22:47;4.60;;;4.20;;
9094;SDS011;4583;49.796;9.902;2023-05-07T22:32:52;5.03;;;4.53;;
9094;SDS011;4583;49.796;9.902;2023-05-07T22:42:54;7.23;;;4.40;;
9094;SDS011;4583;49.796;9.902;2023-05-07T22:52:56;7.50;;;5.00;;
9094;SDS011;4583;49.796;9.902;2023-05-07T23:02:58;6.10;;;5.10;;
9094;SDS011;4583;49.796;9.902;2023-05-07T23:13:00;9.20;;;5.10;;
9094;SDS011;4583;49.796;9.902;2023-05-07T23:23:02;5.47;;;4.97;;
9094;SDS011;4583;49.796;9.902;2023-05-07T23:33:03;6.53;;;5.70;;
9094;SDS011;4583;49.796;9.902;2023-05-07T23:43:05;6.37;;;5.30;;
9094;SDS011;4583;49.796;9.902;2023-05-07T23:53:07;5.93;;;5.33;;
